Terminal Aerodrome Forecast
Issued by NWS Buffalo, NY

Home | Current Version | Previous Version | Text Only | Print | Product List | Glossary On
Versions: 1 2 3 4 5 6 7 8 9 10 11 12 13 14 15 16 17 18 19 20 21
000
FTUS41 KBUF 270500
TAFBUF
TAF
KBUF 270530Z 2706/2806 22007KT P6SM FEW200 SCT250
     FM271200 21007KT P6SM BKN025 BKN250
     FM271400 21008KT P6SM BKN035 BKN250
     FM272300 21014G21KT P6SM BKN040 BKN070
     FM280100 21017G24KT P6SM VCSH BKN040
     FM280300 23018G26KT 6SM -SHRA OVC040=

USA.gov is the U.S. government's official web portal to all federal, state and local government web resources and services.